sensor_id;sensor_type;location;lat;lon;timestamp;P1;durP1;ratioP1;P2;durP2;ratioP2
77705;SDS011;66874;45.274;5.880;2023-02-15T00:00:03;27.58;;;14.60;;
77705;SDS011;66874;45.274;5.880;2023-02-15T00:02:30;28.77;;;12.95;;
77705;SDS011;66874;45.274;5.880;2023-02-15T00:04:56;28.60;;;13.25;;
77705;SDS011;66874;45.274;5.880;2023-02-15T00:07:21;28.88;;;12.75;;
77705;SDS011;66874;45.274;5.880;2023-02-15T00:09:47;21.92;;;10.77;;
77705;SDS011;66874;45.274;5.880;2023-02-15T00:12:13;22.52;;;11.15;;
77705;SDS011;66874;45.274;5.880;2023-02-15T00:14:39;28.70;;;12.88;;
77705;SDS011;66874;45.274;5.880;2023-02-15T00:17:05;25.05;;;9.85;;
77705;SDS011;66874;45.274;5.880;2023-02-15T00:19:30;26.77;;;12.48;;
77705;SDS011;66874;45.274;5.880;2023-02-15T00:21:56;36.60;;;14.05;;
77705;SDS011;66874;45.274;5.880;2023-02-15T00:24:21;26.30;;;13.45;;
77705;SDS011;66874;45.274;5.880;2023-02-15T00:26:47;30.23;;;13.50;;
77705;SDS011;66874;45.274;5.880;2023-02-15T00:29:13;24.30;;;11.88;;
77705;SDS011;66874;45.274;5.880;2023-02-15T03:02:03;10.90;;;5.45;;
77705;SDS011;66874;45.274;5.880;2023-02-15T03:04:07;14.77;;;6.63;;
77705;SDS011;66874;45.274;5.880;2023-02-15T03:06:40;12.70;;;6.30;;
77705;SDS011;66874;45.274;5.880;2023-02-15T03:09:08;10.70;;;6.03;;
77705;SDS011;66874;45.274;5.880;2023-02-15T03:11:46;12.90;;;6.53;;
77705;SDS011;66874;45.274;5.880;2023-02-15T03:14:13;18.40;;;7.15;;
77705;SDS011;66874;45.274;5.880;2023-02-15T03:16:40;17.05;;;6.22;;
77705;SDS011;66874;45.274;5.880;2023-02-15T03:19:09;12.02;;;5.40;;
77705;SDS011;66874;45.274;5.880;2023-02-15T03:21:47;11.02;;;5.38;;
77705;SDS011;66874;45.274;5.880;2023-02-15T03:24:22;14.52;;;6.95;;
77705;SDS011;66874;45.274;5.880;2023-02-15T03:26:51;12.90;;;6.20;;
77705;SDS011;66874;45.274;5.880;2023-02-15T03:29:19;14.82;;;6.32;;
77705;SDS011;66874;45.274;5.880;2023-02-15T06:32:25;16.47;;;8.37;;
77705;SDS011;66874;45.274;5.880;2023-02-15T06:34:50;22.70;;;7.83;;
77705;SDS011;66874;45.274;5.880;2023-02-15T06:37:16;20.17;;;8.83;;
77705;SDS011;66874;45.274;5.880;2023-02-15T06:39:41;25.67;;;9.93;;
77705;SDS011;66874;45.274;5.880;2023-02-15T06:42:07;19.00;;;8.07;;
77705;SDS011;66874;45.274;5.880;2023-02-15T06:44:33;19.67;;;9.63;;
77705;SDS011;66874;45.274;5.880;2023-02-15T06:46:58;20.07;;;9.60;;
77705;SDS011;66874;45.274;5.880;2023-02-15T06:49:24;20.50;;;9.33;;
77705;SDS011;66874;45.274;5.880;2023-02-15T06:51:49;20.03;;;8.97;;
77705;SDS011;66874;45.274;5.880;2023-02-15T06:54:14;22.83;;;8.83;;
77705;SDS011;66874;45.274;5.880;2023-02-15T06:56:40;19.63;;;9.17;;
77705;SDS011;66874;45.274;5.880;2023-02-15T06:59:05;17.93;;;9.67;;
77705;SDS011;66874;45.274;5.880;2023-02-15T07:01:31;18.47;;;9.43;;
77705;SDS011;66874;45.274;5.880;2023-02-15T07:03:56;16.80;;;7.97;;
77705;SDS011;66874;45.274;5.880;2023-02-15T07:06:21;23.63;;;9.33;;
77705;SDS011;66874;45.274;5.880;2023-02-15T07:08:47;19.77;;;10.37;;
77705;SDS011;66874;45.274;5.880;2023-02-15T07:11:12;23.97;;;10.53;;
77705;SDS011;66874;45.274;5.880;2023-02-15T07:13:56;16.47;;;9.77;;
77705;SDS011;66874;45.274;5.880;2023-02-15T07:16:21;20.87;;;10.07;;
77705;SDS011;66874;45.274;5.880;2023-02-15T07:18:47;20.07;;;9.17;;
77705;SDS011;66874;45.274;5.880;2023-02-15T07:21:12;21.67;;;10.57;;
77705;SDS011;66874;45.274;5.880;2023-02-15T07:23:38;17.17;;;10.10;;
77705;SDS011;66874;45.274;5.880;2023-02-15T07:26:05;23.70;;;10.50;;
77705;SDS011;66874;45.274;5.880;2023-02-15T07:28:31;23.03;;;9.97;;
77705;SDS011;66874;45.274;5.880;2023-02-15T07:30:57;24.13;;;11.55;;
77705;SDS011;66874;45.274;5.880;2023-02-15T07:33:23;26.10;;;11.33;;
77705;SDS011;66874;45.274;5.880;2023-02-15T07:38:19;26.30;;;10.53;;
77705;SDS011;66874;45.274;5.880;2023-02-15T07:40:45;21.73;;;11.33;;
77705;SDS011;66874;45.274;5.880;2023-02-15T07:43:11;29.70;;;12.97;;
77705;SDS011;66874;45.274;5.880;2023-02-15T07:45:37;37.07;;;14.50;;
77705;SDS011;66874;45.274;5.880;2023-02-15T07:48:03;30.20;;;13.83;;
77705;SDS011;66874;45.274;5.880;2023-02-15T07:50:29;27.03;;;13.07;;
77705;SDS011;66874;45.274;5.880;2023-02-15T07:52:55;30.70;;;13.87;;
77705;SDS011;66874;45.274;5.880;2023-02-15T07:55:21;35.63;;;14.17;;
77705;SDS011;66874;45.274;5.880;2023-02-15T07:57:47;36.70;;;16.17;;
77705;SDS011;66874;45.274;5.880;2023-02-15T08:00:14;34.95;;;16.20;;
77705;SDS011;66874;45.274;5.880;2023-02-15T08:02:41;40.23;;;18.03;;
77705;SDS011;66874;45.274;5.880;2023-02-15T08:05:07;45.00;;;17.83;;
77705;SDS011;66874;45.274;5.880;2023-02-15T08:07:33;49.17;;;20.10;;
77705;SDS011;66874;45.274;5.880;2023-02-15T08:09:58;40.27;;;17.97;;
77705;SDS011;66874;45.274;5.880;2023-02-15T08:12:27;32.73;;;15.17;;
77705;SDS011;66874;45.274;5.880;2023-02-15T08:14:52;30.70;;;12.90;;
77705;SDS011;66874;45.274;5.880;2023-02-15T08:17:18;34.87;;;15.87;;
77705;SDS011;66874;45.274;5.880;2023-02-15T08:19:43;55.47;;;25.73;;
77705;SDS011;66874;45.274;5.880;2023-02-15T08:22:10;30.57;;;16.53;;
77705;SDS011;66874;45.274;5.880;2023-02-15T08:24:37;25.73;;;12.13;;
77705;SDS011;66874;45.274;5.880;2023-02-15T08:27:03;24.90;;;11.13;;
77705;SDS011;66874;45.274;5.880;2023-02-15T08:29:30;21.75;;;11.55;;
77705;SDS011;66874;45.274;5.880;2023-02-15T08:32:01;20.80;;;9.55;;
77705;SDS011;66874;45.274;5.880;2023-02-15T08:34:32;22.50;;;10.53;;
77705;SDS011;66874;45.274;5.880;2023-02-15T08:37:07;26.50;;;11.10;;
77705;SDS011;66874;45.274;5.880;2023-02-15T08:39:33;21.75;;;11.07;;
77705;SDS011;66874;45.274;5.880;2023-02-15T08:41:58;20.00;;;10.55;;
77705;SDS011;66874;45.274;5.880;2023-02-15T08:44:24;25.63;;;10.63;;
77705;SDS011;66874;45.274;5.880;2023-02-15T08:46:49;25.08;;;11.20;;
77705;SDS011;66874;45.274;5.880;2023-02-15T08:49:16;27.30;;;12.10;;
77705;SDS011;66874;45.274;5.880;2023-02-15T08:51:44;26.63;;;10.90;;
77705;SDS011;66874;45.274;5.880;2023-02-15T08:54:11;22.10;;;10.45;;
77705;SDS011;66874;45.274;5.880;2023-02-15T08:56:39;18.45;;;9.73;;
77705;SDS011;66874;45.274;5.880;2023-02-15T08:59:07;25.23;;;11.10;;
77705;SDS011;66874;45.274;5.880;2023-02-15T09:01:38;17.70;;;10.00;;
77705;SDS011;66874;45.274;5.880;2023-02-15T09:04:04;20.00;;;10.23;;
77705;SDS011;66874;45.274;5.880;2023-02-15T09:06:33;23.45;;;10.50;;
77705;SDS011;66874;45.274;5.880;2023-02-15T09:08:59;22.42;;;10.70;;
77705;SDS011;66874;45.274;5.880;2023-02-15T09:11:25;28.80;;;11.93;;
77705;SDS011;66874;45.274;5.880;2023-02-15T09:13:56;28.48;;;12.40;;
77705;SDS011;66874;45.274;5.880;2023-02-15T09:16:24;27.35;;;11.75;;
77705;SDS011;66874;45.274;5.880;2023-02-15T09:18:52;25.52;;;11.73;;
77705;SDS011;66874;45.274;5.880;2023-02-15T09:21:18;31.67;;;11.45;;
77705;SDS011;66874;45.274;5.880;2023-02-15T09:23:47;24.35;;;11.57;;
77705;SDS011;66874;45.274;5.880;2023-02-15T09:26:21;23.13;;;10.75;;
77705;SDS011;66874;45.274;5.880;2023-02-15T09:28:48;22.55;;;11.15;;
77705;SDS011;66874;45.274;5.880;2023-02-15T09:31:18;27.10;;;11.75;;
77705;SDS011;66874;45.274;5.880;2023-02-15T09:38:52;29.05;;;11.02;;
77705;SDS011;66874;45.274;5.880;2023-02-15T09:49:48;22.65;;;10.27;;
77705;SDS011;66874;45.274;5.880;2023-02-15T09:57:44;23.10;;;9.27;;
77705;SDS011;66874;45.274;5.880;2023-02-15T10:00:30;21.45;;;10.05;;
77705;SDS011;66874;45.274;5.880;2023-02-15T10:03:13;20.67;;;9.38;;
77705;SDS011;66874;45.274;5.880;2023-02-15T10:09:02;17.15;;;8.82;;
77705;SDS011;66874;45.274;5.880;2023-02-15T10:20:40;22.15;;;9.45;;
77705;SDS011;66874;45.274;5.880;2023-02-15T10:23:12;20.17;;;7.55;;
77705;SDS011;66874;45.274;5.880;2023-02-15T10:25:53;13.35;;;7.38;;
77705;SDS011;66874;45.274;5.880;2023-02-15T10:28:26;14.02;;;6.50;;
77705;SDS011;66874;45.274;5.880;2023-02-15T10:31:22;14.20;;;7.22;;
77705;SDS011;66874;45.274;5.880;2023-02-15T10:39:48;17.05;;;8.57;;
77705;SDS011;66874;45.274;5.880;2023-02-15T10:42:06;12.82;;;7.10;;
77705;SDS011;66874;45.274;5.880;2023-02-15T10:50:24;17.95;;;8.35;;
77705;SDS011;66874;45.274;5.880;2023-02-15T10:52:54;13.93;;;7.32;;
77705;SDS011;66874;45.274;5.880;2023-02-15T10:58:18;23.40;;;7.82;;
77705;SDS011;66874;45.274;5.880;2023-02-15T11:06:09;19.15;;;8.60;;
77705;SDS011;66874;45.274;5.880;2023-02-15T11:08:45;18.40;;;9.10;;
77705;SDS011;66874;45.274;5.880;2023-02-15T11:11:15;19.20;;;7.95;;
77705;SDS011;66874;45.274;5.880;2023-02-15T11:14:08;20.05;;;8.30;;
77705;SDS011;66874;45.274;5.880;2023-02-15T11:16:43;26.65;;;8.88;;
77705;SDS011;66874;45.274;5.880;2023-02-15T11:19:13;25.48;;;9.82;;
77705;SDS011;66874;45.274;5.880;2023-02-15T11:21:45;25.20;;;9.95;;
77705;SDS011;66874;45.274;5.880;2023-02-15T11:24:16;23.75;;;8.77;;
77705;SDS011;66874;45.274;5.880;2023-02-15T11:26:46;18.92;;;8.85;;
77705;SDS011;66874;45.274;5.880;2023-02-15T11:31:46;23.45;;;10.30;;
77705;SDS011;66874;45.274;5.880;2023-02-15T11:34:24;25.55;;;9.73;;
77705;SDS011;66874;45.274;5.880;2023-02-15T11:36:58;20.27;;;9.38;;
77705;SDS011;66874;45.274;5.880;2023-02-15T11:39:27;19.83;;;8.80;;
77705;SDS011;66874;45.274;5.880;2023-02-15T11:41:57;20.55;;;9.68;;
77705;SDS011;66874;45.274;5.880;2023-02-15T11:44:27;18.92;;;8.40;;
77705;SDS011;66874;45.274;5.880;2023-02-15T11:46:57;17.38;;;8.70;;
77705;SDS011;66874;45.274;5.880;2023-02-15T11:49:33;17.75;;;8.50;;
77705;SDS011;66874;45.274;5.880;2023-02-15T11:52:05;19.38;;;9.18;;
77705;SDS011;66874;45.274;5.880;2023-02-15T11:54:34;19.95;;;10.07;;
77705;SDS011;66874;45.274;5.880;2023-02-15T11:57:10;20.67;;;9.00;;
77705;SDS011;66874;45.274;5.880;2023-02-15T11:59:42;22.00;;;9.15;;
77705;SDS011;66874;45.274;5.880;2023-02-15T12:02:15;17.27;;;8.98;;
77705;SDS011;66874;45.274;5.880;2023-02-15T12:04:43;15.07;;;8.88;;
77705;SDS011;66874;45.274;5.880;2023-02-15T12:07:21;16.95;;;7.22;;
77705;SDS011;66874;45.274;5.880;2023-02-15T12:12:33;22.70;;;10.43;;
77705;SDS011;66874;45.274;5.880;2023-02-15T12:15:00;23.38;;;10.07;;
77705;SDS011;66874;45.274;5.880;2023-02-15T12:17:39;19.50;;;9.88;;
77705;SDS011;66874;45.274;5.880;2023-02-15T12:20:18;18.42;;;9.73;;
77705;SDS011;66874;45.274;5.880;2023-02-15T12:22:53;22.80;;;8.10;;
77705;SDS011;66874;45.274;5.880;2023-02-15T12:28:05;11.50;;;7.78;;
77705;SDS011;66874;45.274;5.880;2023-02-15T12:30:48;17.00;;;8.52;;
77705;SDS011;66874;45.274;5.880;2023-02-15T12:33:30;13.98;;;9.10;;
77705;SDS011;66874;45.274;5.880;2023-02-15T12:36:01;14.60;;;6.78;;
77705;SDS011;66874;45.274;5.880;2023-02-15T12:38:34;10.60;;;6.85;;
77705;SDS011;66874;45.274;5.880;2023-02-15T12:41:02;11.18;;;7.22;;
77705;SDS011;66874;45.274;5.880;2023-02-15T12:43:33;12.38;;;6.40;;
77705;SDS011;66874;45.274;5.880;2023-02-15T12:48:45;13.23;;;6.13;;
77705;SDS011;66874;45.274;5.880;2023-02-15T12:51:12;11.05;;;6.38;;
77705;SDS011;66874;45.274;5.880;2023-02-15T12:53:40;20.00;;;7.90;;
77705;SDS011;66874;45.274;5.880;2023-02-15T12:56:06;20.75;;;7.95;;
77705;SDS011;66874;45.274;5.880;2023-02-15T12:58:33;13.30;;;7.40;;
77705;SDS011;66874;45.274;5.880;2023-02-15T13:03:57;15.32;;;8.27;;
77705;SDS011;66874;45.274;5.880;2023-02-15T13:06:26;15.00;;;7.80;;
77705;SDS011;66874;45.274;5.880;2023-02-15T13:08:54;19.65;;;8.43;;
77705;SDS011;66874;45.274;5.880;2023-02-15T13:14:03;16.85;;;8.10;;
77705;SDS011;66874;45.274;5.880;2023-02-15T13:16:42;15.52;;;7.57;;
77705;SDS011;66874;45.274;5.880;2023-02-15T13:19:12;12.15;;;6.97;;
77705;SDS011;66874;45.274;5.880;2023-02-15T13:21:39;10.90;;;5.85;;
77705;SDS011;66874;45.274;5.880;2023-02-15T13:24:27;11.20;;;6.30;;
77705;SDS011;66874;45.274;5.880;2023-02-15T13:26:58;11.98;;;6.63;;
77705;SDS011;66874;45.274;5.880;2023-02-15T13:29:28;15.38;;;7.32;;
77705;SDS011;66874;45.274;5.880;2023-02-15T13:31:57;12.32;;;6.60;;
77705;SDS011;66874;45.274;5.880;2023-02-15T13:34:28;13.07;;;6.50;;
77705;SDS011;66874;45.274;5.880;2023-02-15T13:42:18;12.77;;;8.15;;
77705;SDS011;66874;45.274;5.880;2023-02-15T13:50:53;17.42;;;7.75;;
77705;SDS011;66874;45.274;5.880;2023-02-15T13:59:02;15.10;;;6.53;;
77705;SDS011;66874;45.274;5.880;2023-02-15T14:01:52;15.07;;;6.72;;
77705;SDS011;66874;45.274;5.880;2023-02-15T14:18:23;12.10;;;5.40;;
77705;SDS011;66874;45.274;5.880;2023-02-15T14:20:57;13.93;;;4.68;;
77705;SDS011;66874;45.274;5.880;2023-02-15T14:31:52;12.38;;;6.45;;
77705;SDS011;66874;45.274;5.880;2023-02-15T14:34:33;8.60;;;5.93;;
77705;SDS011;66874;45.274;5.880;2023-02-15T14:37:01;17.30;;;6.40;;
77705;SDS011;66874;45.274;5.880;2023-02-15T14:40:16;13.88;;;6.00;;
77705;SDS011;66874;45.274;5.880;2023-02-15T14:42:45;13.55;;;5.72;;
77705;SDS011;66874;45.274;5.880;2023-02-15T14:45:26;11.73;;;5.07;;
77705;SDS011;66874;45.274;5.880;2023-02-15T14:48:01;10.77;;;4.93;;
77705;SDS011;66874;45.274;5.880;2023-02-15T14:50:37;13.38;;;4.55;;
77705;SDS011;66874;45.274;5.880;2023-02-15T14:53:15;11.55;;;5.35;;
77705;SDS011;66874;45.274;5.880;2023-02-15T14:55:40;13.43;;;5.75;;
77705;SDS011;66874;45.274;5.880;2023-02-15T14:58:15;14.38;;;5.75;;
77705;SDS011;66874;45.274;5.880;2023-02-15T15:00:40;13.73;;;5.70;;
77705;SDS011;66874;45.274;5.880;2023-02-15T15:03:10;13.80;;;5.40;;
77705;SDS011;66874;45.274;5.880;2023-02-15T15:05:48;12.35;;;5.78;;
77705;SDS011;66874;45.274;5.880;2023-02-15T15:09:00;11.82;;;5.20;;
77705;SDS011;66874;45.274;5.880;2023-02-15T15:16:28;16.50;;;6.15;;
77705;SDS011;66874;45.274;5.880;2023-02-15T15:19:01;14.70;;;5.82;;
77705;SDS011;66874;45.274;5.880;2023-02-15T15:25:39;13.88;;;5.75;;
77705;SDS011;66874;45.274;5.880;2023-02-15T15:35:24;11.23;;;5.20;;
77705;SDS011;66874;45.274;5.880;2023-02-15T15:41:17;9.73;;;5.80;;
77705;SDS011;66874;45.274;5.880;2023-02-15T15:49:28;16.67;;;5.50;;
77705;SDS011;66874;45.274;5.880;2023-02-15T15:51:59;14.68;;;6.13;;
77705;SDS011;66874;45.274;5.880;2023-02-15T15:54:26;16.02;;;5.22;;
77705;SDS011;66874;45.274;5.880;2023-02-15T15:56:53;10.85;;;4.97;;
77705;SDS011;66874;45.274;5.880;2023-02-15T15:59:27;9.35;;;4.57;;
77705;SDS011;66874;45.274;5.880;2023-02-15T16:01:55;11.73;;;5.13;;
77705;SDS011;66874;45.274;5.880;2023-02-15T16:04:29;8.18;;;4.20;;
77705;SDS011;66874;45.274;5.880;2023-02-15T16:06:57;7.88;;;3.45;;
77705;SDS011;66874;45.274;5.880;2023-02-15T16:09:38;8.43;;;4.45;;
77705;SDS011;66874;45.274;5.880;2023-02-15T16:12:03;5.35;;;2.95;;
77705;SDS011;66874;45.274;5.880;2023-02-15T16:14:39;6.28;;;3.53;;
77705;SDS011;66874;45.274;5.880;2023-02-15T16:17:07;7.25;;;3.53;;
77705;SDS011;66874;45.274;5.880;2023-02-15T16:19:39;11.43;;;5.78;;
77705;SDS011;66874;45.274;5.880;2023-02-15T16:22:13;12.90;;;5.55;;
77705;SDS011;66874;45.274;5.880;2023-02-15T16:27:49;8.10;;;3.72;;
77705;SDS011;66874;45.274;5.880;2023-02-15T16:30:27;6.85;;;4.10;;
77705;SDS011;66874;45.274;5.880;2023-02-15T16:33:08;8.95;;;3.50;;
77705;SDS011;66874;45.274;5.880;2023-02-15T16:35:40;8.27;;;2.83;;
77705;SDS011;66874;45.274;5.880;2023-02-15T16:41:07;15.63;;;3.80;;
77705;SDS011;66874;45.274;5.880;2023-02-15T16:43:54;15.23;;;3.70;;
77705;SDS011;66874;45.274;5.880;2023-02-15T16:48:53;15.52;;;6.70;;
77705;SDS011;66874;45.274;5.880;2023-02-15T16:51:26;17.98;;;9.60;;
77705;SDS011;66874;45.274;5.880;2023-02-15T16:53:54;15.45;;;9.48;;
77705;SDS011;66874;45.274;5.880;2023-02-15T16:56:25;25.58;;;12.43;;
77705;SDS011;66874;45.274;5.880;2023-02-15T16:58:55;24.17;;;12.45;;
77705;SDS011;66874;45.274;5.880;2023-02-15T17:06:23;30.67;;;14.57;;
77705;SDS011;66874;45.274;5.880;2023-02-15T17:08:51;34.28;;;17.00;;
77705;SDS011;66874;45.274;5.880;2023-02-15T17:11:20;27.90;;;14.82;;
77705;SDS011;66874;45.274;5.880;2023-02-15T17:17:13;36.00;;;16.38;;
77705;SDS011;66874;45.274;5.880;2023-02-15T17:19:24;30.20;;;15.23;;
77705;SDS011;66874;45.274;5.880;2023-02-15T17:22:02;33.42;;;16.70;;
77705;SDS011;66874;45.274;5.880;2023-02-15T17:24:37;39.35;;;17.17;;
77705;SDS011;66874;45.274;5.880;2023-02-15T17:27:13;40.38;;;18.75;;
77705;SDS011;66874;45.274;5.880;2023-02-15T17:29:47;32.50;;;15.65;;
77705;SDS011;66874;45.274;5.880;2023-02-15T17:32:26;19.20;;;9.55;;
77705;SDS011;66874;45.274;5.880;2023-02-15T17:37:42;20.92;;;9.52;;
77705;SDS011;66874;45.274;5.880;2023-02-15T17:40:20;16.00;;;9.48;;
77705;SDS011;66874;45.274;5.880;2023-02-15T17:42:50;31.75;;;15.23;;
77705;SDS011;66874;45.274;5.880;2023-02-15T17:45:16;30.20;;;15.52;;
77705;SDS011;66874;45.274;5.880;2023-02-15T17:47:42;48.25;;;23.58;;
77705;SDS011;66874;45.274;5.880;2023-02-15T17:50:15;68.50;;;33.22;;
77705;SDS011;66874;45.274;5.880;2023-02-15T17:52:44;29.90;;;13.35;;
77705;SDS011;66874;45.274;5.880;2023-02-15T17:55:14;17.77;;;9.93;;
77705;SDS011;66874;45.274;5.880;2023-02-15T17:58:03;17.70;;;10.32;;
77705;SDS011;66874;45.274;5.880;2023-02-15T18:00:34;23.67;;;12.98;;
77705;SDS011;66874;45.274;5.880;2023-02-15T18:03:21;30.55;;;14.70;;
77705;SDS011;66874;45.274;5.880;2023-02-15T18:06:07;30.50;;;14.90;;
77705;SDS011;66874;45.274;5.880;2023-02-15T18:08:52;33.65;;;16.98;;
77705;SDS011;66874;45.274;5.880;2023-02-15T18:11:36;32.25;;;17.45;;
77705;SDS011;66874;45.274;5.880;2023-02-15T18:14:05;32.88;;;19.52;;
77705;SDS011;66874;45.274;5.880;2023-02-15T18:18:59;44.58;;;19.65;;
77705;SDS011;66874;45.274;5.880;2023-02-15T18:21:25;34.42;;;18.50;;
77705;SDS011;66874;45.274;5.880;2023-02-15T18:23:51;46.08;;;22.73;;
77705;SDS011;66874;45.274;5.880;2023-02-15T18:26:18;44.47;;;21.65;;
77705;SDS011;66874;45.274;5.880;2023-02-15T18:28:46;45.22;;;24.05;;
77705;SDS011;66874;45.274;5.880;2023-02-15T18:31:12;44.90;;;22.83;;
77705;SDS011;66874;45.274;5.880;2023-02-15T18:33:48;40.67;;;23.40;;
77705;SDS011;66874;45.274;5.880;2023-02-15T18:36:19;37.70;;;20.88;;
77705;SDS011;66874;45.274;5.880;2023-02-15T18:38:47;32.45;;;19.77;;
77705;SDS011;66874;45.274;5.880;2023-02-15T18:41:17;32.85;;;17.25;;
77705;SDS011;66874;45.274;5.880;2023-02-15T18:43:44;30.42;;;17.33;;
77705;SDS011;66874;45.274;5.880;2023-02-15T18:46:11;30.85;;;16.50;;
77705;SDS011;66874;45.274;5.880;2023-02-15T18:48:37;31.77;;;17.42;;
77705;SDS011;66874;45.274;5.880;2023-02-15T18:51:02;30.83;;;18.60;;
77705;SDS011;66874;45.274;5.880;2023-02-15T18:53:28;34.97;;;19.73;;
77705;SDS011;66874;45.274;5.880;2023-02-15T18:55:53;36.22;;;19.83;;
77705;SDS011;66874;45.274;5.880;2023-02-15T18:58:20;32.55;;;18.17;;
77705;SDS011;66874;45.274;5.880;2023-02-15T19:00:47;28.70;;;16.77;;
77705;SDS011;66874;45.274;5.880;2023-02-15T19:03:14;35.97;;;20.50;;
77705;SDS011;66874;45.274;5.880;2023-02-15T19:05:42;41.30;;;23.52;;
77705;SDS011;66874;45.274;5.880;2023-02-15T19:08:19;34.72;;;19.00;;
77705;SDS011;66874;45.274;5.880;2023-02-15T19:10:48;57.80;;;29.45;;
77705;SDS011;66874;45.274;5.880;2023-02-15T19:13:15;60.28;;;29.25;;
77705;SDS011;66874;45.274;5.880;2023-02-15T19:15:42;56.90;;;30.13;;
77705;SDS011;66874;45.274;5.880;2023-02-15T19:18:08;52.67;;;25.65;;
77705;SDS011;66874;45.274;5.880;2023-02-15T19:20:40;50.95;;;22.48;;
77705;SDS011;66874;45.274;5.880;2023-02-15T19:23:19;48.15;;;22.65;;
77705;SDS011;66874;45.274;5.880;2023-02-15T19:25:46;102.18;;;42.22;;
77705;SDS011;66874;45.274;5.880;2023-02-15T19:28:14;90.55;;;40.40;;
77705;SDS011;66874;45.274;5.880;2023-02-15T19:30:58;49.97;;;25.13;;
77705;SDS011;66874;45.274;5.880;2023-02-15T19:33:24;53.53;;;25.80;;
77705;SDS011;66874;45.274;5.880;2023-02-15T19:52:38;74.10;;;28.60;;
77705;SDS011;66874;45.274;5.880;2023-02-15T19:55:29;52.10;;;25.23;;
77705;SDS011;66874;45.274;5.880;2023-02-15T19:57:57;41.20;;;19.58;;
77705;SDS011;66874;45.274;5.880;2023-02-15T20:03:18;36.08;;;17.83;;
77705;SDS011;66874;45.274;5.880;2023-02-15T20:05:44;41.05;;;20.23;;
77705;SDS011;66874;45.274;5.880;2023-02-15T20:08:17;37.70;;;19.65;;
77705;SDS011;66874;45.274;5.880;2023-02-15T20:10:53;57.92;;;23.38;;
77705;SDS011;66874;45.274;5.880;2023-02-15T20:13:19;38.22;;;18.23;;
77705;SDS011;66874;45.274;5.880;2023-02-15T20:15:45;30.73;;;16.65;;
77705;SDS011;66874;45.274;5.880;2023-02-15T20:18:14;26.65;;;14.85;;
77705;SDS011;66874;45.274;5.880;2023-02-15T20:20:44;33.80;;;17.05;;
77705;SDS011;66874;45.274;5.880;2023-02-15T20:26:14;41.83;;;17.58;;
77705;SDS011;66874;45.274;5.880;2023-02-15T20:28:43;48.92;;;21.90;;
77705;SDS011;66874;45.274;5.880;2023-02-15T20:31:17;46.85;;;23.02;;
77705;SDS011;66874;45.274;5.880;2023-02-15T20:34:20;38.42;;;18.48;;
77705;SDS011;66874;45.274;5.880;2023-02-15T20:37:00;46.08;;;20.30;;
77705;SDS011;66874;45.274;5.880;2023-02-15T20:39:26;35.97;;;18.48;;
77705;SDS011;66874;45.274;5.880;2023-02-15T20:41:52;35.05;;;17.55;;
77705;SDS011;66874;45.274;5.880;2023-02-15T20:46:48;27.77;;;14.68;;
77705;SDS011;66874;45.274;5.880;2023-02-15T20:52:32;32.53;;;15.00;;
77705;SDS011;66874;45.274;5.880;2023-02-15T20:54:57;38.63;;;18.98;;
77705;SDS011;66874;45.274;5.880;2023-02-15T20:57:23;45.05;;;21.25;;
77705;SDS011;66874;45.274;5.880;2023-02-15T20:59:51;38.03;;;17.85;;
77705;SDS011;66874;45.274;5.880;2023-02-15T21:02:17;32.95;;;16.38;;
77705;SDS011;66874;45.274;5.880;2023-02-15T21:04:44;32.35;;;16.73;;
77705;SDS011;66874;45.274;5.880;2023-02-15T21:07:14;37.33;;;15.65;;
77705;SDS011;66874;45.274;5.880;2023-02-15T21:09:41;31.42;;;15.60;;
77705;SDS011;66874;45.274;5.880;2023-02-15T21:12:17;35.83;;;16.48;;
77705;SDS011;66874;45.274;5.880;2023-02-15T21:14:43;40.90;;;18.23;;
77705;SDS011;66874;45.274;5.880;2023-02-15T21:17:10;44.15;;;20.15;;
77705;SDS011;66874;45.274;5.880;2023-02-15T21:19:42;50.63;;;21.13;;
77705;SDS011;66874;45.274;5.880;2023-02-15T21:22:09;42.03;;;19.88;;
77705;SDS011;66874;45.274;5.880;2023-02-15T21:24:37;51.85;;;22.13;;
77705;SDS011;66874;45.274;5.880;2023-02-15T21:27:03;57.83;;;24.42;;
77705;SDS011;66874;45.274;5.880;2023-02-15T21:31:56;48.28;;;21.90;;
77705;SDS011;66874;45.274;5.880;2023-02-15T21:34:25;53.25;;;23.83;;
77705;SDS011;66874;45.274;5.880;2023-02-15T21:36:50;54.70;;;23.33;;
77705;SDS011;66874;45.274;5.880;2023-02-15T21:41:45;63.15;;;24.85;;
77705;SDS011;66874;45.274;5.880;2023-02-15T21:44:30;57.95;;;26.15;;
77705;SDS011;66874;45.274;5.880;2023-02-15T21:50:07;61.47;;;25.35;;
77705;SDS011;66874;45.274;5.880;2023-02-15T21:53:03;36.47;;;15.90;;
77705;SDS011;66874;45.274;5.880;2023-02-15T21:55:30;37.33;;;16.88;;
77705;SDS011;66874;45.274;5.880;2023-02-15T21:57:56;34.80;;;16.42;;
77705;SDS011;66874;45.274;5.880;2023-02-15T22:00:23;31.88;;;14.43;;
77705;SDS011;66874;45.274;5.880;2023-02-15T22:02:53;32.43;;;15.73;;
77705;SDS011;66874;45.274;5.880;2023-02-15T22:05:26;41.47;;;17.45;;
77705;SDS011;66874;45.274;5.880;2023-02-15T22:07:53;44.42;;;17.83;;
77705;SDS011;66874;45.274;5.880;2023-02-15T22:10:19;39.08;;;17.02;;
77705;SDS011;66874;45.274;5.880;2023-02-15T22:12:45;40.03;;;17.25;;
77705;SDS011;66874;45.274;5.880;2023-02-15T22:15:17;50.90;;;18.90;;
77705;SDS011;66874;45.274;5.880;2023-02-15T22:17:45;46.33;;;19.70;;
77705;SDS011;66874;45.274;5.880;2023-02-15T22:20:12;40.17;;;17.95;;
77705;SDS011;66874;45.274;5.880;2023-02-15T22:22:39;33.97;;;16.30;;
77705;SDS011;66874;45.274;5.880;2023-02-15T22:25:05;32.25;;;14.48;;
77705;SDS011;66874;45.274;5.880;2023-02-15T22:27:30;35.13;;;15.93;;
77705;SDS011;66874;45.274;5.880;2023-02-15T22:30:03;40.00;;;18.33;;
77705;SDS011;66874;45.274;5.880;2023-02-15T22:32:38;46.25;;;20.00;;
77705;SDS011;66874;45.274;5.880;2023-02-15T22:35:05;47.20;;;19.15;;
77705;SDS011;66874;45.274;5.880;2023-02-15T22:37:31;41.35;;;17.38;;
77705;SDS011;66874;45.274;5.880;2023-02-15T22:39:57;43.92;;;18.65;;
77705;SDS011;66874;45.274;5.880;2023-02-15T22:42:23;43.92;;;16.63;;
77705;SDS011;66874;45.274;5.880;2023-02-15T22:44:51;41.95;;;17.42;;
77705;SDS011;66874;45.274;5.880;2023-02-15T22:49:46;37.60;;;16.38;;
77705;SDS011;66874;45.274;5.880;2023-02-15T22:52:12;30.83;;;15.45;;
77705;SDS011;66874;45.274;5.880;2023-02-15T22:54:38;41.05;;;18.25;;
77705;SDS011;66874;45.274;5.880;2023-02-15T22:57:04;35.22;;;16.38;;
77705;SDS011;66874;45.274;5.880;2023-02-15T22:59:30;32.65;;;15.48;;
77705;SDS011;66874;45.274;5.880;2023-02-15T23:01:58;25.10;;;13.57;;
77705;SDS011;66874;45.274;5.880;2023-02-15T23:04:26;22.75;;;12.55;;
77705;SDS011;66874;45.274;5.880;2023-02-15T23:06:52;35.05;;;15.07;;
77705;SDS011;66874;45.274;5.880;2023-02-15T23:09:19;34.63;;;16.05;;
77705;SDS011;66874;45.274;5.880;2023-02-15T23:11:53;32.47;;;15.48;;
77705;SDS011;66874;45.274;5.880;2023-02-15T23:16:48;30.23;;;14.23;;
77705;SDS011;66874;45.274;5.880;2023-02-15T23:19:13;28.83;;;13.10;;
77705;SDS011;66874;45.274;5.880;2023-02-15T23:21:39;31.83;;;13.32;;
77705;SDS011;66874;45.274;5.880;2023-02-15T23:24:18;40.72;;;16.35;;
77705;SDS011;66874;45.274;5.880;2023-02-15T23:26:45;32.85;;;15.27;;
77705;SDS011;66874;45.274;5.880;2023-02-15T23:29:13;30.40;;;13.30;;
77705;SDS011;66874;45.274;5.880;2023-02-15T23:31:41;33.65;;;14.20;;
77705;SDS011;66874;45.274;5.880;2023-02-15T23:34:13;30.65;;;13.38;;